createdAt,value
2019-01-02T00:00:09.535Z,76.28
2019-01-02T00:02:35.779Z,76.44
2019-01-02T00:05:01.738Z,77.16
2019-01-02T00:07:28.542Z,77.60
2019-01-02T00:09:54.815Z,77.80
2019-01-02T00:12:20.766Z,77.14
2019-01-02T00:14:46.764Z,77.12
2019-01-02T00:17:12.706Z,77.60
2019-01-02T00:19:38.853Z,77.61
2019-01-02T00:22:04.873Z,78.55
2019-01-02T00:24:33.144Z,78.66
2019-01-02T00:26:59.174Z,79.09
2019-01-02T00:29:25.474Z,79.51
2019-01-02T00:31:52.807Z,78.99
2019-01-02T00:34:19.158Z,79.29
2019-01-02T00:36:45.147Z,79.52
2019-01-02T00:39:11.496Z,80.04
2019-01-02T00:41:37.443Z,80.40
2019-01-02T00:44:05.081Z,80.33
2019-01-02T00:46:31.021Z,80.91
2019-01-02T00:48:57.480Z,81.29
2019-01-02T00:51:23.480Z,81.95
2019-01-02T00:53:51.239Z,81.99
2019-01-02T00:56:19.085Z,82.44
2019-01-02T00:58:46.746Z,82.22
2019-01-02T01:01:12.720Z,82.22
2019-01-02T01:03:38.661Z,82.58
2019-01-02T01:06:04.684Z,82.59
2019-01-02T01:08:30.739Z,82.97
2019-01-02T01:10:57.191Z,82.88
2019-01-02T01:13:23.172Z,82.93
2019-01-02T01:15:50.012Z,83.25
2019-01-02T01:18:16.102Z,83.50
2019-01-02T01:20:42.564Z,82.91
2019-01-02T01:23:08.691Z,82.48
2019-01-02T01:25:35.092Z,82.04
2019-01-02T01:28:01.335Z,82.11
2019-01-02T01:30:27.274Z,82.06
2019-01-02T01:32:53.227Z,82.30
2019-01-02T01:35:19.223Z,82.48
2019-01-02T01:37:46.104Z,82.97
2019-01-02T01:40:12.056Z,83.27
2019-01-02T01:42:38.039Z,83.21
2019-01-02T01:45:07.287Z,83.40
2019-01-02T01:47:33.731Z,83.70
2019-01-02T01:50:00.267Z,83.95
2019-01-02T01:52:26.405Z,83.74
2019-01-02T01:54:52.750Z,84.04
2019-01-02T01:57:18.735Z,84.30
2019-01-02T01:59:44.670Z,83.70
2019-01-02T02:02:11.130Z,83.95
2019-01-02T02:04:37.314Z,83.79
2019-01-02T02:07:03.702Z,83.43
2019-01-02T02:09:29.805Z,83.31
2019-01-02T02:11:56.221Z,82.92
2019-01-02T02:14:22.172Z,82.18
2019-01-02T02:16:48.108Z,82.34
2019-01-02T02:19:14.491Z,82.12
2019-01-02T02:21:40.435Z,82.49
2019-01-02T02:24:06.583Z,82.72
2019-01-02T02:26:32.833Z,82.95
2019-01-02T02:28:58.778Z,83.22
2019-01-02T02:31:24.722Z,83.07
2019-01-02T02:33:51.176Z,83.43
2019-01-02T02:36:17.544Z,83.71
2019-01-02T02:38:43.896Z,83.79
2019-01-02T02:41:10.633Z,83.76
2019-01-02T02:43:37.592Z,84.08
2019-01-02T02:46:03.532Z,84.32
2019-01-02T02:48:29.975Z,84.36
2019-01-02T02:50:57.017Z,84.46
2019-01-02T02:53:23.258Z,84.45
2019-01-02T02:55:50.575Z,84.50
2019-01-02T02:58:16.920Z,84.37
2019-01-02T03:00:43.778Z,83.87
2019-01-02T03:03:10.575Z,83.99
2019-01-02T03:05:36.516Z,84.18
2019-01-02T03:08:02.472Z,84.04
2019-01-02T03:10:28.853Z,84.04
2019-01-02T03:12:56.408Z,83.81
2019-01-02T03:15:22.848Z,83.63
2019-01-02T03:17:48.935Z,83.66
2019-01-02T03:20:14.935Z,83.54
2019-01-02T03:22:41.258Z,83.72
2019-01-02T03:25:09.747Z,83.82
2019-01-02T03:27:36.371Z,83.81
2019-01-02T03:30:06.352Z,83.55
2019-01-02T03:32:32.730Z,83.33
2019-01-02T03:34:59.173Z,82.83
2019-01-02T03:37:25.121Z,82.06
2019-01-02T03:39:51.971Z,82.06
2019-01-02T03:42:18.888Z,81.00
2019-01-02T03:44:44.849Z,80.88
2019-01-02T03:47:10.835Z,81.07
2019-01-02T03:49:38.686Z,81.27
2019-01-02T03:52:04.629Z,81.17
2019-01-02T03:54:30.619Z,80.98
2019-01-02T03:56:56.701Z,80.24
2019-01-02T03:59:22.648Z,78.32
2019-01-02T04:01:49.087Z,76.86
2019-01-02T04:04:15.146Z,76.25
2019-01-02T04:06:41.400Z,76.46
2019-01-02T04:09:07.678Z,76.08
2019-01-02T04:11:33.734Z,74.28
2019-01-02T04:13:59.791Z,73.02
2019-01-02T04:16:25.903Z,72.42
2019-01-02T04:18:51.837Z,71.92
2019-01-02T04:21:17.787Z,71.51
2019-01-02T04:23:43.920Z,72.12
2019-01-02T04:26:10.963Z,71.84
2019-01-02T04:28:36.959Z,72.43
2019-01-02T04:31:03.040Z,73.24
2019-01-02T04:33:29.592Z,74.18
2019-01-02T04:35:55.531Z,74.44
2019-01-02T04:38:22.226Z,74.50
2019-01-02T04:40:48.872Z,74.88
2019-01-02T04:43:14.806Z,75.22
2019-01-02T04:45:40.827Z,75.44
2019-01-02T04:48:07.175Z,75.57
2019-01-02T04:50:33.109Z,75.16
2019-01-02T04:52:59.108Z,74.82
2019-01-02T04:55:25.046Z,74.86
2019-01-02T04:57:50.992Z,74.62
2019-01-02T05:00:16.974Z,74.45
2019-01-02T05:02:42.919Z,74.20
2019-01-02T05:05:08.856Z,74.27
2019-01-02T05:07:35.031Z,74.34
2019-01-02T05:10:00.971Z,74.33
2019-01-02T05:12:26.935Z,74.48
2019-01-02T05:14:52.951Z,74.30
2019-01-02T05:17:18.857Z,74.28
2019-01-02T05:19:44.797Z,74.35
2019-01-02T05:22:10.779Z,75.40
2019-01-02T05:24:36.729Z,76.49
2019-01-02T05:27:02.677Z,77.34
2019-01-02T05:29:29.609Z,77.52
2019-01-02T05:31:55.553Z,77.66
2019-01-02T05:34:23.407Z,77.99
2019-01-02T05:36:49.398Z,78.42
2019-01-02T05:39:15.329Z,77.92
2019-01-02T05:41:41.387Z,77.54
2019-01-02T05:44:07.683Z,77.44
2019-01-02T05:46:33.616Z,77.31
2019-01-02T05:49:00.379Z,77.42
2019-01-02T05:51:26.390Z,77.08
2019-01-02T05:53:52.935Z,76.54
2019-01-02T05:56:19.975Z,75.89
2019-01-02T05:58:46.167Z,75.67
2019-01-02T06:01:12.108Z,74.82
2019-01-02T06:03:38.053Z,74.02
2019-01-02T06:06:04.739Z,73.91
2019-01-02T06:08:31.382Z,74.26
2019-01-02T06:10:57.328Z,73.87
2019-01-02T06:13:24.167Z,74.02
2019-01-02T06:15:50.115Z,74.50
2019-01-02T06:18:16.061Z,73.21
2019-01-02T06:20:42.132Z,72.82
2019-01-02T06:23:08.100Z,71.62
2019-01-02T06:25:34.240Z,71.35
2019-01-02T06:28:00.520Z,71.25
2019-01-02T06:30:28.364Z,71.51
2019-01-02T06:32:54.312Z,71.96
2019-01-02T06:35:20.315Z,72.19
2019-01-02T06:37:47.229Z,71.32
2019-01-02T06:40:13.294Z,71.01
2019-01-02T06:42:39.849Z,71.08
2019-01-02T06:45:08.408Z,71.52
2019-01-02T06:47:34.347Z,72.33
2019-01-02T06:50:00.382Z,72.99
2019-01-02T06:52:26.318Z,73.39
2019-01-02T06:54:52.442Z,74.35
2019-01-02T06:57:18.581Z,74.32
2019-01-02T06:59:44.521Z,74.32
2019-01-02T07:02:10.476Z,74.44
2019-01-02T07:04:36.462Z,74.75
2019-01-02T07:07:02.711Z,75.28
2019-01-02T07:09:28.647Z,75.55
2019-01-02T07:11:54.640Z,75.55
2019-01-02T07:14:20.593Z,75.92
2019-01-02T07:16:47.248Z,76.12
2019-01-02T07:19:13.260Z,76.37
2019-01-02T07:21:39.198Z,76.51
2019-01-02T07:24:05.589Z,76.41
2019-01-02T07:26:32.279Z,76.37
2019-01-02T07:29:08.438Z,76.69
2019-01-02T07:31:35.320Z,82.60
2019-01-02T07:34:05.031Z,79.16
2019-01-02T07:36:54.656Z,79.15
2019-01-02T07:39:24.611Z,78.81
2019-01-02T07:42:12.932Z,78.09
2019-01-02T07:45:10.290Z,77.21
2019-01-02T07:47:52.240Z,76.47
2019-01-02T07:50:37.163Z,76.06
2019-01-02T07:53:33.273Z,76.11
2019-01-02T07:56:19.386Z,76.34
2019-01-02T07:59:01.880Z,76.95
2019-01-02T08:01:52.110Z,77.57
2019-01-02T08:04:30.801Z,78.36
2019-01-02T08:07:17.593Z,78.53
2019-01-02T08:10:07.826Z,79.00
2019-01-02T08:12:47.309Z,78.69
2019-01-02T08:15:46.419Z,78.85
2019-01-02T08:18:27.982Z,78.62
2019-01-02T08:21:30.599Z,78.74
2019-01-02T08:24:06.477Z,79.24
2019-01-02T08:26:39.275Z,78.74
2019-01-02T08:29:20.983Z,78.28
2019-01-02T08:32:15.889Z,77.46
2019-01-02T08:34:58.753Z,76.97
2019-01-02T08:37:45.535Z,76.92
2019-01-02T08:40:15.403Z,76.69
2019-01-02T08:42:51.023Z,76.79
2019-01-02T08:45:40.455Z,77.21
2019-01-02T08:48:42.175Z,77.95
2019-01-02T08:51:47.304Z,78.56
2019-01-02T08:54:38.285Z,78.24
2019-01-02T08:57:19.888Z,76.48
2019-01-02T08:59:49.704Z,74.60
2019-01-02T09:02:22.536Z,72.02
2019-01-02T09:05:10.217Z,71.43
2019-01-02T09:08:01.384Z,71.12
2019-01-02T09:10:42.894Z,70.74
2019-01-02T09:13:21.694Z,71.09
2019-01-02T09:16:12.828Z,71.24
2019-01-02T09:18:48.651Z,71.10
2019-01-02T09:21:32.908Z,70.10
2019-01-02T09:24:17.775Z,69.64
2019-01-02T09:26:53.399Z,68.51
2019-01-02T09:29:26.130Z,68.48
2019-01-02T09:32:14.263Z,65.45
2019-01-02T09:34:52.872Z,64.27
2019-01-02T09:37:50.407Z,63.39
2019-01-02T09:40:38.273Z,64.26
2019-01-02T09:43:26.570Z,65.14
2019-01-02T09:46:14.299Z,65.08
2019-01-02T09:48:46.841Z,65.49
2019-01-02T09:51:25.854Z,64.38
2019-01-02T09:54:07.166Z,64.55
2019-01-02T09:56:36.929Z,63.87
2019-01-02T09:59:32.449Z,61.97
2019-01-02T10:02:05.016Z,60.48
2019-01-02T10:04:37.545Z,58.87
2019-01-02T10:07:30.379Z,59.73
2019-01-02T10:10:09.305Z,59.39
2019-01-02T10:12:39.065Z,62.93
2019-01-02T10:15:17.675Z,65.74
2019-01-02T10:17:47.441Z,67.69
2019-01-02T10:20:43.835Z,69.34
2019-01-02T10:23:17.658Z,69.59
2019-01-02T10:25:53.064Z,71.12
2019-01-02T10:28:38.049Z,71.75
2019-01-02T10:31:14.792Z,71.46
2019-01-02T10:34:05.167Z,71.45
2019-01-02T10:37:11.332Z,71.29
2019-01-02T10:39:59.431Z,71.60
2019-01-02T10:42:37.230Z,72.04
2019-01-02T10:45:43.950Z,71.18
2019-01-02T10:48:36.352Z,69.84
2019-01-02T10:51:42.932Z,68.32
2019-01-02T10:54:25.187Z,67.83
2019-01-02T10:57:04.140Z,66.09
2019-01-02T10:59:40.096Z,65.32
2019-01-02T11:02:22.197Z,65.59
2019-01-02T11:05:16.345Z,65.66
2019-01-02T11:08:05.717Z,64.74
2019-01-02T11:10:47.407Z,64.77
2019-01-02T11:13:22.676Z,63.68
2019-01-02T11:16:13.886Z,63.23
2019-01-02T11:19:00.182Z,62.55
2019-01-02T11:21:41.469Z,63.69
2019-01-02T11:24:28.010Z,64.67
2019-01-02T11:27:06.936Z,63.17
2019-01-02T11:29:46.237Z,65.06
2019-01-02T11:32:19.079Z,66.40
2019-01-02T11:34:55.142Z,66.92
2019-01-02T11:37:56.477Z,66.84
2019-01-02T11:40:59.260Z,66.54
2019-01-02T11:43:40.405Z,66.47
2019-01-02T11:46:06.529Z,65.69
2019-01-02T11:48:34.416Z,66.05
2019-01-02T11:51:00.442Z,65.91
2019-01-02T11:53:26.421Z,65.07
2019-01-02T11:55:52.372Z,64.01
2019-01-02T11:58:18.363Z,63.45
2019-01-02T12:00:44.307Z,62.83
2019-01-02T12:03:10.265Z,63.86
2019-01-02T12:05:36.594Z,64.03
2019-01-02T12:08:02.956Z,64.49
2019-01-02T12:10:29.023Z,64.70
2019-01-02T12:12:55.003Z,63.76
2019-01-02T12:15:21.166Z,64.35
2019-01-02T12:17:47.548Z,64.42
2019-01-02T12:20:13.532Z,63.88
2019-01-02T12:22:39.893Z,64.01
2019-01-02T12:25:05.934Z,64.18
2019-01-02T12:27:35.206Z,64.77
2019-01-02T12:30:06.314Z,65.05
2019-01-02T12:32:34.512Z,63.55
2019-01-02T12:35:00.610Z,63.94
2019-01-02T12:37:27.504Z,63.49
2019-01-02T12:39:53.866Z,63.91
2019-01-02T12:42:19.858Z,63.82
2019-01-02T12:44:46.007Z,64.60
2019-01-02T12:47:12.093Z,64.79
2019-01-02T12:49:38.370Z,65.07
2019-01-02T12:52:04.608Z,64.61
2019-01-02T12:54:30.752Z,64.25
2019-01-02T12:56:56.770Z,63.01
2019-01-02T12:59:24.745Z,62.60
2019-01-02T13:02:16.270Z,61.14
2019-01-02T13:04:55.461Z,60.40
2019-01-02T13:07:37.578Z,58.82
2019-01-02T13:10:10.200Z,59.35
2019-01-02T13:12:50.195Z,59.39
2019-01-02T13:15:38.283Z,60.28
2019-01-02T13:18:29.718Z,60.46
2019-01-02T13:21:01.833Z,59.53
2019-01-02T13:23:34.683Z,59.36
2019-01-02T13:26:13.193Z,59.64
2019-01-02T13:28:48.998Z,59.96
2019-01-02T13:31:46.725Z,59.16
2019-01-02T13:34:17.623Z,59.40
2019-01-02T13:36:47.440Z,59.57
2019-01-02T13:39:21.236Z,59.68
2019-01-02T13:42:00.048Z,59.53
2019-01-02T13:44:29.839Z,59.07
2019-01-02T13:46:59.589Z,59.62
2019-01-02T13:49:50.463Z,60.49
2019-01-02T13:52:16.777Z,61.18
2019-01-02T13:54:43.617Z,60.57
2019-01-02T13:57:09.653Z,59.87
2019-01-02T13:59:35.597Z,60.46
2019-01-02T14:02:03.704Z,59.79
2019-01-02T14:04:30.288Z,59.63
2019-01-02T14:06:56.234Z,59.47
2019-01-02T14:09:23.348Z,58.45
2019-01-02T14:11:49.481Z,58.38
2019-01-02T14:14:15.707Z,58.13
2019-01-02T14:16:41.947Z,59.42
2019-01-02T14:19:07.956Z,60.05
2019-01-02T14:21:34.323Z,60.36
2019-01-02T14:24:00.614Z,60.41
2019-01-02T14:26:27.701Z,59.80
2019-01-02T14:28:53.649Z,59.01
2019-01-02T14:31:19.812Z,56.90
2019-01-02T14:33:46.166Z,56.51
2019-01-02T14:36:12.111Z,57.05
2019-01-02T14:38:38.350Z,58.31
2019-01-02T14:41:04.647Z,59.59
2019-01-02T14:43:30.667Z,60.01
2019-01-02T14:45:56.989Z,60.32
2019-01-02T14:48:23.248Z,60.64
2019-01-02T14:50:50.384Z,60.11
2019-01-02T14:53:16.834Z,59.71
2019-01-02T14:55:43.455Z,58.46
2019-01-02T14:58:09.635Z,56.70
2019-01-02T15:00:36.144Z,55.93
2019-01-02T15:03:02.251Z,55.41
2019-01-02T15:05:28.217Z,57.34
2019-01-02T15:07:54.216Z,60.04
2019-01-02T15:10:20.658Z,60.66
2019-01-02T15:12:46.660Z,61.16
2019-01-02T15:15:12.975Z,62.65
2019-01-02T15:17:39.272Z,63.14
2019-01-02T15:20:07.325Z,64.28
2019-01-02T15:22:33.426Z,65.17
2019-01-02T15:25:02.511Z,65.79
2019-01-02T15:27:28.964Z,66.21
2019-01-02T15:29:55.724Z,66.80
2019-01-02T15:32:22.197Z,67.26
2019-01-02T15:34:51.808Z,68.72
2019-01-02T15:37:22.690Z,66.53
2019-01-02T15:39:52.603Z,65.43
2019-01-02T15:42:22.521Z,65.32
2019-01-02T15:44:48.470Z,65.71
2019-01-02T15:47:16.227Z,66.03
2019-01-02T15:49:42.177Z,66.65
2019-01-02T15:52:08.130Z,67.86
2019-01-02T15:54:34.219Z,68.35
2019-01-02T15:57:00.220Z,68.41
2019-01-02T15:59:26.177Z,68.50
2019-01-02T16:01:52.231Z,68.50
2019-01-02T16:04:18.499Z,68.62
2019-01-02T16:06:44.808Z,67.47
2019-01-02T16:09:10.845Z,67.17
2019-01-02T16:11:37.953Z,66.73
2019-01-02T16:14:04.191Z,66.38
2019-01-02T16:16:30.790Z,66.69
2019-01-02T16:18:56.742Z,67.08
2019-01-02T16:21:22.693Z,67.33
2019-01-02T16:23:49.216Z,67.76
2019-01-02T16:26:18.839Z,67.46
2019-01-02T16:28:45.655Z,67.92
2019-01-02T16:31:13.740Z,69.43
2019-01-02T16:33:39.845Z,70.33
2019-01-02T16:36:06.750Z,70.76
2019-01-02T16:38:33.880Z,70.64
2019-01-02T16:41:01.259Z,71.10
2019-01-02T16:43:27.765Z,71.05
2019-01-02T16:45:53.989Z,71.05
2019-01-02T16:48:19.956Z,70.46
2019-01-02T16:50:46.616Z,69.34
2019-01-02T16:53:14.494Z,69.09
2019-01-02T16:55:40.457Z,69.26
2019-01-02T16:58:08.825Z,69.43
2019-01-02T17:00:35.199Z,69.80
2019-01-02T17:03:01.468Z,70.29
2019-01-02T17:05:27.916Z,70.47
2019-01-02T17:07:53.926Z,70.01
2019-01-02T17:10:22.216Z,69.81
2019-01-02T17:12:48.156Z,70.21
2019-01-02T17:15:17.065Z,70.49
2019-01-02T17:17:44.759Z,70.86
2019-01-02T17:20:10.927Z,71.55
2019-01-02T17:22:36.917Z,72.06
2019-01-02T17:25:05.795Z,71.95
2019-01-02T17:27:36.084Z,71.57
2019-01-02T17:30:06.194Z,71.03
2019-01-02T17:32:34.345Z,71.84
2019-01-02T17:35:00.758Z,72.51
2019-01-02T17:37:27.019Z,72.51
2019-01-02T17:39:53.200Z,72.54
2019-01-02T17:42:20.561Z,72.44
2019-01-02T17:44:49.181Z,72.46
2019-01-02T17:47:17.323Z,72.04
2019-01-02T17:49:43.683Z,72.20
2019-01-02T17:52:09.837Z,72.14
2019-01-02T17:54:35.784Z,72.32
2019-01-02T17:57:04.165Z,72.27
2019-01-02T17:59:31.810Z,72.16
2019-01-02T18:01:58.234Z,72.14
2019-01-02T18:04:24.618Z,71.41
2019-01-02T18:06:50.620Z,71.40
2019-01-02T18:09:16.910Z,71.24
2019-01-02T18:11:42.999Z,71.28
2019-01-02T18:14:09.738Z,71.36
2019-01-02T18:16:36.153Z,71.43
2019-01-02T18:19:02.199Z,71.07
2019-01-02T18:21:31.092Z,70.55
2019-01-02T18:23:57.056Z,69.83
2019-01-02T18:26:23.017Z,69.51
2019-01-02T18:28:49.022Z,69.22
2019-01-02T18:31:15.692Z,69.43
2019-01-02T18:33:41.660Z,70.03
2019-01-02T18:36:07.782Z,70.33
2019-01-02T18:38:33.730Z,70.59
2019-01-02T18:40:59.713Z,70.79
2019-01-02T18:43:26.682Z,72.13
2019-01-02T18:45:53.156Z,73.47
2019-01-02T18:48:19.108Z,73.96
2019-01-02T18:50:45.100Z,74.13
2019-01-02T18:53:11.058Z,74.45
2019-01-02T18:55:37.308Z,74.55
2019-01-02T18:58:03.314Z,74.50
2019-01-02T19:00:29.680Z,74.55
2019-01-02T19:02:55.706Z,74.59
2019-01-02T19:05:22.083Z,74.27
2019-01-02T19:07:48.348Z,73.13
2019-01-02T19:10:16.512Z,72.29
2019-01-02T19:12:43.004Z,71.31
2019-01-02T19:15:09.387Z,70.18
2019-01-02T19:17:35.347Z,69.30
2019-01-02T19:20:04.623Z,69.33
2019-01-02T19:22:31.660Z,69.52
2019-01-02T19:24:57.622Z,69.29
2019-01-02T19:27:23.956Z,68.74
2019-01-02T19:29:50.344Z,67.57
2019-01-02T19:32:16.527Z,67.22
2019-01-02T19:34:44.165Z,66.96
2019-01-02T19:37:10.188Z,66.79
2019-01-02T19:39:36.153Z,67.16
2019-01-02T19:42:04.538Z,67.00
2019-01-02T19:44:34.577Z,67.50
2019-01-02T19:47:00.894Z,67.95
2019-01-02T19:49:26.967Z,67.43
2019-01-02T19:51:53.351Z,67.31
2019-01-02T19:54:19.369Z,66.13
2019-01-02T19:56:45.391Z,66.14
2019-01-02T19:59:11.400Z,65.27
2019-01-02T20:01:37.384Z,65.01
2019-01-02T20:04:05.835Z,64.27
2019-01-02T20:06:31.931Z,63.59
2019-01-02T20:08:57.892Z,63.13
2019-01-02T20:11:23.933Z,61.11
2019-01-02T20:13:49.959Z,61.02
2019-01-02T20:16:16.408Z,61.06
2019-01-02T20:18:42.419Z,61.49
2019-01-02T20:21:08.400Z,61.37
2019-01-02T20:23:34.366Z,61.20
2019-01-02T20:26:00.413Z,61.47
2019-01-02T20:28:26.404Z,60.90
2019-01-02T20:30:52.455Z,60.27
2019-01-02T20:33:18.807Z,60.47
2019-01-02T20:35:44.770Z,60.85
2019-01-02T20:38:11.272Z,60.94
2019-01-02T20:40:37.447Z,60.75
2019-01-02T20:43:03.391Z,60.87
2019-01-02T20:45:29.607Z,60.10
2019-01-02T20:47:57.734Z,60.94
2019-01-02T20:50:24.208Z,60.92
2019-01-02T20:52:50.495Z,60.87
2019-01-02T20:55:17.076Z,60.92
2019-01-02T20:57:44.051Z,60.53
2019-01-02T21:00:12.431Z,60.91
2019-01-02T21:02:38.625Z,61.18
2019-01-02T21:05:05.495Z,61.09
2019-01-02T21:07:31.863Z,61.18
2019-01-02T21:09:58.374Z,61.13
2019-01-02T21:12:24.351Z,61.55
2019-01-02T21:14:52.690Z,61.92
2019-01-02T21:17:20.542Z,61.76
2019-01-02T21:19:49.462Z,61.48
2019-01-02T21:22:15.568Z,61.13
2019-01-02T21:24:41.620Z,60.34
2019-01-02T21:27:07.528Z,60.15
2019-01-02T21:29:33.579Z,60.61
2019-01-02T21:31:59.893Z,60.20
2019-01-02T21:34:26.009Z,60.16
2019-01-02T21:36:51.964Z,60.62
2019-01-02T21:39:18.012Z,60.84
2019-01-02T21:41:43.974Z,60.78
2019-01-02T21:44:09.934Z,60.42
2019-01-02T21:46:37.101Z,60.83
2019-01-02T21:49:03.071Z,60.74
2019-01-02T21:51:29.047Z,60.23
2019-01-02T21:53:55.059Z,60.09
2019-01-02T21:56:21.072Z,59.22
2019-01-02T21:58:48.331Z,59.05
2019-01-02T22:01:17.000Z,58.97
2019-01-02T22:03:45.490Z,60.17
2019-01-02T22:06:11.814Z,63.13
2019-01-02T22:08:37.843Z,64.70
2019-01-02T22:11:04.028Z,65.64
2019-01-02T22:13:30.150Z,66.14
2019-01-02T22:15:56.647Z,67.10
2019-01-02T22:18:24.007Z,67.50
2019-01-02T22:20:53.179Z,68.38
2019-01-02T22:23:19.209Z,67.87
2019-01-02T22:25:45.206Z,67.28
2019-01-02T22:28:11.184Z,67.20
2019-01-02T22:30:38.700Z,67.42
2019-01-02T22:33:04.714Z,68.05
2019-01-02T22:35:33.967Z,68.73
2019-01-02T22:37:59.960Z,68.96
2019-01-02T22:40:25.917Z,68.89
2019-01-02T22:42:52.878Z,68.03
2019-01-02T22:45:22.464Z,67.99
2019-01-02T22:47:48.424Z,67.87
2019-01-02T22:50:15.877Z,67.70
2019-01-02T22:52:42.663Z,67.58
2019-01-02T22:55:08.841Z,67.56
2019-01-02T22:57:35.033Z,67.50
2019-01-02T23:00:01.248Z,67.15
2019-01-02T23:02:29.136Z,66.25
2019-01-02T23:05:01.090Z,65.57
2019-01-02T23:07:29.032Z,64.54
2019-01-02T23:09:57.237Z,63.81
2019-01-02T23:12:28.274Z,63.79
2019-01-02T23:15:13.698Z,68.20
2019-01-02T23:17:50.756Z,68.33
2019-01-02T23:20:30.808Z,68.27
2019-01-02T23:23:04.670Z,68.41
2019-01-02T23:25:32.593Z,69.41
2019-01-02T23:28:19.390Z,72.36
2019-01-02T23:31:02.153Z,72.27
2019-01-02T23:33:30.482Z,72.60
2019-01-02T23:36:04.376Z,72.15
2019-01-02T23:38:35.143Z,72.05
2019-01-02T23:41:19.992Z,71.30
2019-01-02T23:44:04.552Z,71.14
2019-01-02T23:46:54.262Z,70.25
2019-01-02T23:49:26.377Z,68.98
2019-01-02T23:52:00.283Z,68.26
2019-01-02T23:54:31.128Z,67.03
2019-01-02T23:57:15.796Z,64.69
